createdAt,value
2018-01-03T00:00:49.293Z,12.52
2018-01-03T00:01:51.805Z,6.68
2018-01-03T00:02:54.324Z,9.75
2018-01-03T00:03:56.827Z,5.43
2018-01-03T00:04:59.335Z,7.70
2018-01-03T00:06:02.662Z,7.00
2018-01-03T00:07:05.192Z,3.60
2018-01-03T00:08:07.705Z,8.10
2018-01-03T00:09:10.216Z,3.85
2018-01-03T00:10:13.497Z,6.07
2018-01-03T00:11:16.816Z,5.22
2018-01-03T00:12:19.337Z,4.55
2018-01-03T00:13:22.620Z,5.68
2018-01-03T00:14:25.898Z,7.68
2018-01-03T00:15:29.182Z,8.75
2018-01-03T00:16:31.740Z,6.43
2018-01-03T00:17:34.262Z,7.90
2018-01-03T00:18:36.807Z,6.80
2018-01-03T00:19:39.320Z,6.90
2018-01-03T00:20:41.845Z,2.95
2018-01-03T00:21:44.404Z,7.15
2018-01-03T00:22:46.916Z,8.57
2018-01-03T00:23:49.426Z,5.03
2018-01-03T00:24:52.704Z,5.43
2018-01-03T00:25:56.009Z,2.30
2018-01-03T00:26:58.564Z,5.82
2018-01-03T00:28:01.837Z,7.10
2018-01-03T00:29:05.113Z,4.43
2018-01-03T00:30:07.640Z,3.83
2018-01-03T00:31:10.912Z,5.70
2018-01-03T00:32:13.472Z,6.22
2018-01-03T00:33:15.979Z,4.95
2018-01-03T00:34:18.485Z,6.37
2018-01-03T00:35:21.000Z,3.10
2018-01-03T00:36:23.631Z,3.42
2018-01-03T00:37:26.205Z,1.95
2018-01-03T00:38:28.718Z,2.95
2018-01-03T00:39:31.227Z,3.83
2018-01-03T00:40:33.747Z,10.10
2018-01-03T00:41:36.253Z,1.80
2018-01-03T00:42:38.797Z,2.00
2018-01-03T00:43:42.076Z,8.15
2018-01-03T00:44:45.355Z,1.83
2018-01-03T00:45:47.892Z,3.60
2018-01-03T00:46:50.405Z,2.97
2018-01-03T00:47:53.719Z,1.23
2018-01-03T00:48:56.231Z,1.85
2018-01-03T00:49:58.741Z,2.17
2018-01-03T00:51:01.361Z,1.50
2018-01-03T00:52:03.873Z,5.15
2018-01-03T00:53:06.448Z,5.45
2018-01-03T00:54:08.956Z,3.90
2018-01-03T00:55:11.462Z,1.35
2018-01-03T00:56:13.971Z,2.45
2018-01-03T00:57:16.485Z,1.15
2018-01-03T00:58:19.800Z,5.05
2018-01-03T00:59:22.310Z,2.35
2018-01-03T01:00:24.816Z,1.50
2018-01-03T01:01:27.329Z,2.12
2018-01-03T01:02:29.830Z,3.08
2018-01-03T01:03:32.376Z,6.87
2018-01-03T01:04:35.652Z,0.98
2018-01-03T01:05:38.162Z,4.00
2018-01-03T01:06:40.705Z,1.45
2018-01-03T01:07:43.990Z,1.20
2018-01-03T01:08:47.268Z,1.05
2018-01-03T01:09:50.545Z,2.50
2018-01-03T01:10:53.859Z,1.25
2018-01-03T01:11:56.372Z,2.62
2018-01-03T01:12:58.921Z,1.00
2018-01-03T01:14:01.436Z,1.25
2018-01-03T01:15:04.712Z,2.05
2018-01-03T01:16:08.029Z,0.80
2018-01-03T01:17:10.560Z,1.50
2018-01-03T01:18:13.842Z,7.10
2018-01-03T01:19:17.125Z,2.40
2018-01-03T01:20:20.405Z,1.62
2018-01-03T01:21:23.744Z,1.25
2018-01-03T01:22:26.252Z,1.12
2018-01-03T01:23:28.769Z,2.15
2018-01-03T01:24:31.286Z,1.23
2018-01-03T01:25:33.800Z,5.18
2018-01-03T01:26:36.362Z,1.40
2018-01-03T01:27:38.873Z,0.90
2018-01-03T01:28:41.388Z,1.73
2018-01-03T01:29:43.896Z,1.00
2018-01-03T01:30:46.412Z,3.62
2018-01-03T01:31:48.961Z,1.92
2018-01-03T01:32:52.277Z,0.93
2018-01-03T01:33:54.992Z,2.65
2018-01-03T01:34:57.519Z,1.30
2018-01-03T01:36:00.041Z,1.12
2018-01-03T01:37:03.378Z,1.95
2018-01-03T01:38:05.921Z,1.77
2018-01-03T01:39:08.436Z,0.98
2018-01-03T01:40:10.977Z,1.60
2018-01-03T01:41:13.492Z,3.42
2018-01-03T01:42:16.777Z,1.00
2018-01-03T01:43:20.649Z,1.45
2018-01-03T01:44:23.167Z,2.85
2018-01-03T01:45:25.678Z,0.95
2018-01-03T01:46:28.229Z,0.80
2018-01-03T01:47:30.741Z,1.92
2018-01-03T01:48:34.028Z,0.90
2018-01-03T01:49:37.344Z,2.70
2018-01-03T01:50:39.862Z,2.90
2018-01-03T01:51:43.179Z,1.00
2018-01-03T01:52:45.689Z,0.85
2018-01-03T01:53:48.200Z,1.23
2018-01-03T01:54:50.712Z,1.58
2018-01-03T01:55:53.226Z,1.17
2018-01-03T01:56:56.536Z,0.90
2018-01-03T01:57:59.053Z,1.45
2018-01-03T01:59:01.610Z,1.08
2018-01-03T02:00:04.121Z,0.80
2018-01-03T02:01:06.641Z,3.47
2018-01-03T02:02:09.161Z,3.20
2018-01-03T02:03:11.675Z,1.35
2018-01-03T02:04:14.221Z,0.88
2018-01-03T02:05:16.746Z,1.35
2018-01-03T02:06:19.290Z,2.00
2018-01-03T02:07:22.610Z,1.98
2018-01-03T02:08:25.125Z,1.20
2018-01-03T02:09:27.641Z,1.65
2018-01-03T02:10:30.149Z,1.65
2018-01-03T02:11:32.661Z,1.00
2018-01-03T02:12:35.209Z,4.10
2018-01-03T02:13:38.492Z,1.35
2018-01-03T02:14:41.823Z,2.55
2018-01-03T02:15:44.338Z,2.40
2018-01-03T02:16:47.626Z,2.20
2018-01-03T02:17:50.909Z,12.27
2018-01-03T02:18:54.192Z,2.50
2018-01-03T02:19:57.502Z,0.98
2018-01-03T02:21:00.069Z,1.20
2018-01-03T02:22:02.581Z,0.90
2018-01-03T02:23:05.232Z,1.12
2018-01-03T02:24:07.745Z,0.90
2018-01-03T02:25:11.062Z,1.80
2018-01-03T02:26:13.572Z,1.12
2018-01-03T02:27:16.090Z,2.03
2018-01-03T02:28:18.601Z,1.65
2018-01-03T02:29:21.124Z,1.37
2018-01-03T02:30:23.677Z,1.10
2018-01-03T02:31:26.195Z,1.05
2018-01-03T02:32:28.709Z,2.42
2018-01-03T02:33:31.217Z,6.20
2018-01-03T02:34:33.732Z,2.28
2018-01-03T02:35:36.310Z,1.23
2018-01-03T02:36:38.830Z,1.42
2018-01-03T02:37:41.339Z,1.87
2018-01-03T02:38:43.947Z,6.12
2018-01-03T02:39:46.472Z,0.80
2018-01-03T02:40:49.029Z,0.85
2018-01-03T02:41:51.547Z,1.40
2018-01-03T02:42:54.062Z,0.77
2018-01-03T02:43:56.588Z,1.40
2018-01-03T02:44:59.118Z,2.35
2018-01-03T02:46:01.674Z,1.37
2018-01-03T02:47:04.190Z,1.15
2018-01-03T02:48:06.716Z,6.07
2018-01-03T02:49:09.228Z,2.35
2018-01-03T02:50:11.742Z,0.90
2018-01-03T02:51:14.452Z,1.25
2018-01-03T02:52:16.965Z,1.95
2018-01-03T02:53:19.581Z,2.25
2018-01-03T02:54:22.097Z,1.00
2018-01-03T02:55:24.614Z,0.82
2018-01-03T02:56:27.152Z,2.15
2018-01-03T02:57:29.670Z,0.80
2018-01-03T02:58:32.953Z,1.17
2018-01-03T02:59:36.237Z,1.70
2018-01-03T03:00:39.511Z,1.00
2018-01-03T03:01:42.816Z,1.25
2018-01-03T03:02:46.098Z,1.65
2018-01-03T03:03:48.621Z,0.70
2018-01-03T03:04:51.173Z,1.67
2018-01-03T03:05:53.684Z,0.70
2018-01-03T03:06:56.963Z,0.60
2018-01-03T03:07:59.471Z,0.80
2018-01-03T03:09:01.984Z,1.12
2018-01-03T03:10:04.541Z,0.98
2018-01-03T03:11:07.065Z,1.33
2018-01-03T03:12:09.628Z,2.67
2018-01-03T03:13:12.151Z,0.75
2018-01-03T03:14:14.659Z,1.95
2018-01-03T03:15:17.177Z,1.33
2018-01-03T03:16:19.687Z,0.62
2018-01-03T03:17:22.385Z,0.70
2018-01-03T03:18:24.911Z,1.23
2018-01-03T03:19:27.428Z,2.10
2018-01-03T03:20:29.937Z,1.92
2018-01-03T03:21:33.229Z,0.70
2018-01-03T03:22:35.774Z,0.80
2018-01-03T03:23:39.059Z,0.88
2018-01-03T03:24:42.333Z,0.75
2018-01-03T03:25:44.854Z,0.70
2018-01-03T03:26:47.410Z,0.88
2018-01-03T03:27:49.922Z,0.85
2018-01-03T03:28:52.519Z,3.85
2018-01-03T03:29:55.797Z,1.30
2018-01-03T03:30:59.097Z,1.02
2018-01-03T03:32:01.643Z,1.85
2018-01-03T03:33:04.920Z,1.67
2018-01-03T03:34:08.202Z,1.00
2018-01-03T03:35:10.704Z,0.68
2018-01-03T03:36:13.211Z,1.12
2018-01-03T03:37:15.914Z,0.80
2018-01-03T03:38:19.198Z,0.77
2018-01-03T03:39:22.534Z,1.10
2018-01-03T03:40:25.816Z,0.80
2018-01-03T03:41:28.329Z,1.33
2018-01-03T03:42:31.632Z,1.00
2018-01-03T03:43:34.144Z,1.50
2018-01-03T03:44:36.660Z,0.80
2018-01-03T03:45:39.173Z,0.70
2018-01-03T03:46:41.687Z,1.67
2018-01-03T03:47:45.000Z,0.80
2018-01-03T03:48:47.516Z,0.80
2018-01-03T03:49:50.032Z,1.25
2018-01-03T03:50:52.544Z,1.40
2018-01-03T03:51:55.074Z,0.85
2018-01-03T03:52:57.616Z,1.77
2018-01-03T03:54:00.132Z,1.35
2018-01-03T03:55:02.704Z,3.35
2018-01-03T03:56:05.222Z,0.98
2018-01-03T03:57:07.773Z,0.80
2018-01-03T03:58:10.324Z,0.90
2018-01-03T03:59:13.603Z,3.15
2018-01-03T04:00:16.936Z,0.80
2018-01-03T04:01:19.593Z,1.12
2018-01-03T04:02:22.106Z,1.08
2018-01-03T04:03:24.628Z,0.80
2018-01-03T04:04:27.158Z,2.55
2018-01-03T04:05:30.441Z,0.77
2018-01-03T04:06:33.760Z,1.73
2018-01-03T04:07:36.280Z,1.85
2018-01-03T04:08:38.792Z,0.90
2018-01-03T04:09:41.304Z,1.10
2018-01-03T04:10:43.832Z,0.80
2018-01-03T04:11:46.388Z,1.10
2018-01-03T04:12:48.897Z,2.37
2018-01-03T04:13:51.406Z,1.40
2018-01-03T04:14:53.929Z,1.25
2018-01-03T04:15:56.445Z,1.30
2018-01-03T04:16:58.990Z,1.27
2018-01-03T04:18:02.287Z,1.58
2018-01-03T04:19:04.796Z,1.37
2018-01-03T04:20:07.383Z,1.15
2018-01-03T04:21:09.891Z,1.40
2018-01-03T04:22:12.405Z,1.50
2018-01-03T04:23:14.943Z,2.55
2018-01-03T04:24:17.468Z,1.37
2018-01-03T04:25:20.803Z,1.00
2018-01-03T04:26:23.313Z,1.40
2018-01-03T04:27:26.597Z,1.10
2018-01-03T04:28:29.885Z,0.80
2018-01-03T04:29:33.172Z,0.90
2018-01-03T04:30:35.724Z,0.70
2018-01-03T04:31:39.012Z,1.23
2018-01-03T04:32:42.296Z,2.90
2018-01-03T04:33:45.577Z,0.70
2018-01-03T04:34:48.862Z,1.00
2018-01-03T04:35:52.175Z,0.73
2018-01-03T04:36:54.693Z,1.75
2018-01-03T04:37:57.213Z,2.75
2018-01-03T04:38:59.729Z,0.70
2018-01-03T04:40:02.237Z,0.70
2018-01-03T04:41:04.792Z,1.55
2018-01-03T04:42:07.308Z,1.67
2018-01-03T04:43:09.822Z,1.83
2018-01-03T04:44:12.357Z,1.08
2018-01-03T04:45:14.902Z,1.17
2018-01-03T04:46:17.424Z,4.43
2018-01-03T04:47:20.010Z,0.70
2018-01-03T04:48:22.558Z,0.70
2018-01-03T04:49:25.077Z,0.70
2018-01-03T04:50:27.611Z,0.70
2018-01-03T04:51:30.121Z,0.60
2018-01-03T04:52:32.633Z,0.68
2018-01-03T04:53:35.174Z,0.60
2018-01-03T04:54:38.452Z,0.77
2018-01-03T04:55:41.739Z,0.60
2018-01-03T04:56:45.032Z,1.20
2018-01-03T04:57:47.583Z,0.50
2018-01-03T04:58:50.863Z,0.70
2018-01-03T04:59:54.163Z,0.57
2018-01-03T05:00:56.688Z,0.50
2018-01-03T05:01:59.207Z,0.60
2018-01-03T05:03:01.726Z,1.15
2018-01-03T05:04:04.265Z,1.90
2018-01-03T05:05:06.781Z,0.50
2018-01-03T05:06:10.070Z,0.60
2018-01-03T05:07:12.584Z,0.50
2018-01-03T05:08:15.092Z,0.50
2018-01-03T05:09:17.649Z,1.05
2018-01-03T05:10:20.159Z,1.02
2018-01-03T05:11:22.672Z,0.50
2018-01-03T05:12:25.190Z,0.50
2018-01-03T05:13:27.716Z,0.50
2018-01-03T05:14:31.034Z,0.50
2018-01-03T05:15:33.560Z,0.65
2018-01-03T05:16:36.064Z,0.50
2018-01-03T05:17:38.583Z,0.70
2018-01-03T05:18:41.141Z,0.50
2018-01-03T05:19:43.685Z,0.50
2018-01-03T05:20:46.197Z,0.50
2018-01-03T05:21:49.481Z,0.50
2018-01-03T05:22:52.753Z,6.10
2018-01-03T05:23:55.264Z,0.68
2018-01-03T05:24:57.848Z,0.57
2018-01-03T05:26:00.360Z,0.50
2018-01-03T05:27:03.636Z,0.50
2018-01-03T05:28:06.158Z,0.70
2018-01-03T05:29:08.704Z,8.32
2018-01-03T05:30:11.253Z,0.50
2018-01-03T05:31:14.528Z,0.60
2018-01-03T05:32:17.060Z,0.50
2018-01-03T05:33:19.770Z,0.57
2018-01-03T05:34:23.091Z,0.73
2018-01-03T05:35:25.637Z,0.50
2018-01-03T05:36:28.193Z,0.60
2018-01-03T05:37:31.470Z,0.50
2018-01-03T05:38:34.753Z,0.60
2018-01-03T05:39:38.032Z,0.50
2018-01-03T05:40:41.305Z,2.45
2018-01-03T05:41:43.860Z,0.80
2018-01-03T05:42:46.408Z,0.50
2018-01-03T05:43:48.921Z,0.60
2018-01-03T05:44:52.236Z,0.50
2018-01-03T05:45:54.753Z,2.55
2018-01-03T05:46:57.296Z,0.80
2018-01-03T05:47:59.857Z,0.60
2018-01-03T05:49:02.372Z,0.60
2018-01-03T05:50:05.648Z,0.60
2018-01-03T05:51:08.928Z,1.12
2018-01-03T05:52:12.225Z,0.50
2018-01-03T05:53:15.538Z,1.02
2018-01-03T05:54:18.050Z,1.05
2018-01-03T05:55:21.347Z,1.05
2018-01-03T05:56:24.634Z,0.88
2018-01-03T05:57:27.919Z,1.33
2018-01-03T05:58:31.228Z,0.68
2018-01-03T05:59:33.773Z,0.60
2018-01-03T06:00:37.061Z,0.55
2018-01-03T06:01:40.329Z,4.82
2018-01-03T06:02:43.609Z,0.50
2018-01-03T06:03:46.122Z,1.50
2018-01-03T06:04:48.675Z,0.77
2018-01-03T06:05:51.189Z,0.50
2018-01-03T06:06:53.703Z,0.60
2018-01-03T06:07:56.217Z,0.95
2018-01-03T06:08:58.729Z,0.62
2018-01-03T06:10:01.289Z,0.70
2018-01-03T06:11:04.569Z,7.97
2018-01-03T06:12:07.847Z,0.70
2018-01-03T06:13:11.128Z,0.80
2018-01-03T06:14:14.401Z,1.92
2018-01-03T06:15:16.950Z,0.88
2018-01-03T06:16:19.467Z,7.18
2018-01-03T06:17:21.980Z,3.50
2018-01-03T06:18:24.499Z,0.73
2018-01-03T06:19:27.014Z,1.23
2018-01-03T06:20:29.561Z,1.05
2018-01-03T06:21:32.136Z,0.60
2018-01-03T06:22:34.651Z,0.68
2018-01-03T06:23:37.168Z,0.75
2018-01-03T06:24:39.689Z,1.02
2018-01-03T06:25:42.213Z,0.70
2018-01-03T06:26:44.767Z,0.60
2018-01-03T06:27:47.285Z,0.50
2018-01-03T06:28:49.801Z,1.60
2018-01-03T06:29:52.316Z,0.50
2018-01-03T06:30:54.829Z,0.52
2018-01-03T06:31:57.381Z,0.50
2018-01-03T06:32:59.889Z,0.50
2018-01-03T06:34:03.173Z,0.40
2018-01-03T06:35:05.694Z,0.40
2018-01-03T06:36:08.219Z,0.50
2018-01-03T06:37:11.529Z,0.60
2018-01-03T06:38:14.050Z,0.50
2018-01-03T06:39:16.557Z,0.50
2018-01-03T06:40:19.068Z,0.60
2018-01-03T06:41:21.574Z,0.50
2018-01-03T06:42:24.126Z,0.95
2018-01-03T06:43:26.696Z,0.80
2018-01-03T06:44:29.976Z,0.50
2018-01-03T06:45:33.262Z,1.95
2018-01-03T06:46:36.544Z,1.60
2018-01-03T06:47:39.858Z,0.68
2018-01-03T06:48:42.365Z,1.52
2018-01-03T06:49:44.876Z,0.50
2018-01-03T06:50:47.392Z,0.50
2018-01-03T06:51:49.900Z,0.60
2018-01-03T06:52:52.462Z,2.25
2018-01-03T06:53:55.732Z,1.50
2018-01-03T06:54:59.016Z,0.50
2018-01-03T06:56:02.293Z,0.50
2018-01-03T06:57:04.821Z,2.78
2018-01-03T06:58:07.371Z,0.50
2018-01-03T06:59:09.881Z,0.50
2018-01-03T07:00:13.185Z,0.82
2018-01-03T07:01:18.588Z,0.60
2018-01-03T07:02:21.196Z,1.90
2018-01-03T07:03:24.521Z,0.90
2018-01-03T07:04:27.029Z,0.60
2018-01-03T07:05:29.569Z,1.00
2018-01-03T07:06:32.068Z,0.60
2018-01-03T07:07:35.352Z,2.12
2018-01-03T07:08:38.660Z,0.85
2018-01-03T07:09:41.192Z,1.20
2018-01-03T07:10:43.705Z,1.55
2018-01-03T07:11:46.228Z,0.82
2018-01-03T07:12:49.504Z,0.50
2018-01-03T07:13:52.069Z,0.50
2018-01-03T07:14:54.580Z,0.60
2018-01-03T07:15:57.089Z,0.60
2018-01-03T07:16:59.605Z,5.90
2018-01-03T07:18:02.162Z,1.08
2018-01-03T07:19:05.449Z,1.40
2018-01-03T07:20:08.002Z,0.73
2018-01-03T07:21:10.524Z,0.70
2018-01-03T07:22:13.045Z,0.73
2018-01-03T07:23:15.550Z,1.50
2018-01-03T07:24:18.088Z,2.78
2018-01-03T07:25:20.641Z,0.73
2018-01-03T07:26:23.162Z,1.75
2018-01-03T07:27:25.672Z,1.05
2018-01-03T07:28:28.189Z,2.78
2018-01-03T07:29:30.750Z,0.90
2018-01-03T07:30:33.269Z,0.80
2018-01-03T07:31:35.787Z,0.65
2018-01-03T07:32:38.328Z,7.85
2018-01-03T07:33:40.857Z,1.67
2018-01-03T07:34:44.133Z,1.00
2018-01-03T07:35:47.411Z,1.10
2018-01-03T07:36:50.729Z,2.15
2018-01-03T07:37:53.236Z,2.15
2018-01-03T07:38:55.801Z,1.55
2018-01-03T07:39:58.317Z,1.67
2018-01-03T07:41:00.852Z,1.20
2018-01-03T07:42:03.400Z,1.48
2018-01-03T07:43:05.913Z,1.90
2018-01-03T07:44:08.430Z,3.10
2018-01-03T07:45:10.940Z,2.22
2018-01-03T07:46:14.224Z,1.30
2018-01-03T07:47:17.537Z,1.50
2018-01-03T07:48:20.079Z,1.23
2018-01-03T07:49:22.689Z,1.00
2018-01-03T07:50:25.203Z,1.08
2018-01-03T07:51:28.540Z,0.85
2018-01-03T07:52:31.160Z,0.95
2018-01-03T07:53:34.477Z,0.90
2018-01-03T07:54:36.990Z,1.25
2018-01-03T07:55:39.508Z,1.58
2018-01-03T07:56:42.025Z,0.90
2018-01-03T07:57:45.305Z,0.90
2018-01-03T07:58:47.850Z,1.00
2018-01-03T07:59:50.368Z,0.95
2018-01-03T08:00:52.883Z,1.05
2018-01-03T08:01:55.404Z,0.90
2018-01-03T08:02:57.912Z,1.10
2018-01-03T08:04:00.461Z,4.82
2018-01-03T08:05:02.978Z,1.00
2018-01-03T08:06:06.275Z,4.62
2018-01-03T08:07:08.788Z,1.33
2018-01-03T08:08:11.293Z,2.00
2018-01-03T08:09:14.601Z,2.87
2018-01-03T08:10:17.116Z,0.80
2018-01-03T08:11:19.671Z,2.25
2018-01-03T08:12:22.197Z,1.35
2018-01-03T08:13:24.713Z,1.50
2018-01-03T08:14:27.220Z,1.52
2018-01-03T08:15:29.734Z,1.25
2018-01-03T08:16:33.088Z,0.93
2018-01-03T08:17:35.592Z,1.95
2018-01-03T08:18:38.101Z,1.12
2018-01-03T08:19:40.612Z,4.20
2018-01-03T08:20:43.122Z,1.23
2018-01-03T08:21:45.694Z,2.15
2018-01-03T08:22:48.205Z,0.88
2018-01-03T08:23:50.716Z,7.60
2018-01-03T08:24:54.001Z,0.82
2018-01-03T08:25:57.284Z,1.87
2018-01-03T08:27:00.608Z,1.60
2018-01-03T08:28:03.113Z,0.82
2018-01-03T08:29:05.618Z,0.90
2018-01-03T08:30:08.132Z,3.03
2018-01-03T08:31:10.636Z,2.35
2018-01-03T08:32:13.961Z,2.25
2018-01-03T08:33:16.472Z,1.20
2018-01-03T08:34:19.748Z,1.10
2018-01-03T08:35:22.257Z,2.67
2018-01-03T08:36:24.770Z,0.80
2018-01-03T08:37:27.313Z,1.12
2018-01-03T08:38:29.834Z,1.62
2018-01-03T08:39:33.116Z,1.45
2018-01-03T08:40:36.444Z,2.55
2018-01-03T08:41:39.720Z,1.05
2018-01-03T08:42:42.224Z,2.10
2018-01-03T08:43:44.730Z,0.90
2018-01-03T08:44:47.240Z,1.35
2018-01-03T08:45:49.784Z,2.15
2018-01-03T08:46:52.297Z,1.10
2018-01-03T08:47:55.584Z,1.25
2018-01-03T08:48:58.864Z,2.42
2018-01-03T08:50:01.373Z,1.40
2018-01-03T08:51:03.924Z,0.90
2018-01-03T08:52:06.436Z,4.10
2018-01-03T08:53:08.953Z,4.72
2018-01-03T08:54:11.473Z,1.55
2018-01-03T08:55:13.988Z,3.45
2018-01-03T08:56:16.533Z,1.30
2018-01-03T08:57:19.812Z,1.70
2018-01-03T08:58:23.138Z,4.85
2018-01-03T08:59:25.705Z,4.60
2018-01-03T09:00:28.241Z,2.50
2018-01-03T09:01:31.520Z,4.35
2018-01-03T09:02:34.808Z,1.67
2018-01-03T09:03:37.328Z,2.92
2018-01-03T09:04:39.876Z,3.65
2018-01-03T09:05:42.389Z,2.08
2018-01-03T09:06:44.935Z,1.58
2018-01-03T09:07:47.448Z,4.25
2018-01-03T09:08:49.960Z,1.85
2018-01-03T09:09:52.481Z,0.98
2018-01-03T09:10:54.998Z,2.87
2018-01-03T09:11:57.536Z,4.60
2018-01-03T09:13:00.080Z,2.42
2018-01-03T09:14:02.588Z,2.78
2018-01-03T09:15:05.112Z,2.22
2018-01-03T09:16:07.636Z,1.33
2018-01-03T09:17:10.189Z,1.12
2018-01-03T09:18:12.698Z,0.80
2018-01-03T09:19:15.980Z,0.98
2018-01-03T09:20:19.261Z,0.90
2018-01-03T09:21:21.788Z,2.78
2018-01-03T09:22:24.324Z,1.50
2018-01-03T09:23:26.839Z,1.10
2018-01-03T09:24:29.388Z,1.87
2018-01-03T09:25:31.901Z,4.72
2018-01-03T09:26:34.412Z,1.40
2018-01-03T09:27:36.938Z,0.82
2018-01-03T09:28:39.493Z,1.70
2018-01-03T09:29:42.775Z,1.45
2018-01-03T09:30:46.094Z,1.17
2018-01-03T09:31:48.600Z,1.15
2018-01-03T09:32:51.912Z,0.60
2018-01-03T09:33:54.428Z,1.45
2018-01-03T09:34:56.952Z,1.08
2018-01-03T09:35:59.501Z,0.70
2018-01-03T09:37:02.788Z,3.95
2018-01-03T09:38:06.060Z,0.60
2018-01-03T09:39:09.384Z,3.65
2018-01-03T09:40:11.891Z,1.33
2018-01-03T09:41:14.400Z,1.20
2018-01-03T09:42:16.917Z,1.65
2018-01-03T09:43:19.436Z,3.08
2018-01-03T09:44:21.988Z,1.37
2018-01-03T09:45:25.264Z,1.42
2018-01-03T09:46:28.545Z,0.80
2018-01-03T09:47:31.821Z,1.73
2018-01-03T09:48:35.103Z,1.23
2018-01-03T09:49:37.648Z,2.72
2018-01-03T09:50:40.159Z,3.45
2018-01-03T09:51:42.737Z,6.07
2018-01-03T09:52:45.249Z,6.53
2018-01-03T09:53:47.766Z,5.47
2018-01-03T09:54:50.317Z,2.95
2018-01-03T09:55:53.621Z,4.10
2018-01-03T09:56:56.137Z,2.20
2018-01-03T09:57:58.649Z,2.45
2018-01-03T09:59:01.182Z,4.97
2018-01-03T10:00:04.453Z,7.50
2018-01-03T10:01:06.997Z,0.90
2018-01-03T10:02:09.541Z,2.10
2018-01-03T10:03:12.056Z,4.65
2018-01-03T10:04:14.576Z,5.28
2018-01-03T10:05:17.136Z,7.72
2018-01-03T10:06:19.641Z,8.68
2018-01-03T10:07:22.152Z,4.25
2018-01-03T10:08:24.670Z,4.30
2018-01-03T10:09:27.179Z,5.75
2018-01-03T10:10:29.734Z,5.37
2018-01-03T10:11:33.012Z,6.30
2018-01-03T10:12:36.280Z,5.53
2018-01-03T10:13:38.788Z,1.70
2018-01-03T10:14:41.301Z,4.43
2018-01-03T10:15:43.906Z,6.45
2018-01-03T10:16:46.388Z,4.95
2018-01-03T10:17:48.904Z,4.93
2018-01-03T10:18:51.424Z,4.50
2018-01-03T10:19:53.934Z,3.85
2018-01-03T10:20:56.481Z,3.70
2018-01-03T10:21:59.000Z,1.48
2018-01-03T10:23:02.301Z,5.53
2018-01-03T10:24:04.814Z,7.53
2018-01-03T10:25:07.337Z,1.75
2018-01-03T10:26:09.882Z,6.00
2018-01-03T10:27:12.401Z,3.05
2018-01-03T10:28:14.920Z,4.50
2018-01-03T10:29:17.473Z,5.82
2018-01-03T10:30:20.748Z,5.70
2018-01-03T10:31:24.030Z,12.60
2018-01-03T10:32:27.356Z,2.62
2018-01-03T10:33:29.876Z,3.40
2018-01-03T10:34:33.161Z,3.40
2018-01-03T10:35:36.438Z,4.05
2018-01-03T10:36:38.956Z,11.30
2018-01-03T10:37:41.496Z,5.00
2018-01-03T10:38:44.009Z,5.03
2018-01-03T10:39:46.553Z,5.20
2018-01-03T10:40:49.064Z,3.62
2018-01-03T10:41:51.579Z,11.77
2018-01-03T10:42:54.141Z,6.37
2018-01-03T10:43:56.652Z,11.80
2018-01-03T10:44:59.166Z,4.10
2018-01-03T10:46:01.684Z,8.68
2018-01-03T10:47:04.204Z,4.50
2018-01-03T10:48:06.753Z,9.88
2018-01-03T10:49:10.037Z,7.32
2018-01-03T10:50:12.569Z,14.23
2018-01-03T10:51:15.122Z,11.85
2018-01-03T10:52:17.690Z,15.07
2018-01-03T10:53:20.857Z,10.55
2018-01-03T10:54:23.369Z,11.38
2018-01-03T10:55:26.681Z,6.62
2018-01-03T10:56:29.197Z,13.70
2018-01-03T10:57:31.704Z,6.87
2018-01-03T10:58:34.261Z,11.05
2018-01-03T10:59:37.548Z,5.15
2018-01-03T11:00:40.066Z,9.20
2018-01-03T11:01:42.581Z,16.15
2018-01-03T11:02:45.088Z,5.65
2018-01-03T11:03:47.633Z,4.82
2018-01-03T11:04:50.146Z,6.78
2018-01-03T11:05:52.704Z,10.20
2018-01-03T11:06:55.208Z,7.20
2018-01-03T11:07:57.719Z,8.65
2018-01-03T11:09:00.276Z,12.37
2018-01-03T11:10:02.799Z,11.35
2018-01-03T11:11:06.089Z,15.40
2018-01-03T11:12:09.374Z,13.70
2018-01-03T11:13:11.881Z,9.85
2018-01-03T11:14:15.276Z,4.72
2018-01-03T11:15:17.789Z,10.55
2018-01-03T11:16:20.298Z,9.15
2018-01-03T11:17:22.813Z,9.50
2018-01-03T11:18:26.101Z,10.23
2018-01-03T11:19:29.418Z,9.50
2018-01-03T11:20:31.929Z,10.95
2018-01-03T11:21:34.440Z,11.98
2018-01-03T11:22:36.953Z,15.52
2018-01-03T11:23:39.464Z,8.35
2018-01-03T11:24:42.037Z,9.05
2018-01-03T11:25:44.553Z,14.02
2018-01-03T11:26:47.097Z,16.50
2018-01-03T11:27:49.612Z,7.03
2018-01-03T11:28:52.887Z,8.43
2018-01-03T11:29:56.210Z,6.35
2018-01-03T11:30:58.782Z,12.85
2018-01-03T11:32:01.303Z,17.42
2018-01-03T11:33:04.612Z,9.63
2018-01-03T11:34:07.124Z,13.30
2018-01-03T11:35:09.675Z,9.88
2018-01-03T11:36:12.197Z,8.07
2018-01-03T11:37:15.484Z,8.05
2018-01-03T11:38:18.007Z,8.65
2018-01-03T11:39:20.548Z,18.08
2018-01-03T11:40:23.066Z,15.35
2018-01-03T11:41:25.615Z,16.55
2018-01-03T11:42:28.137Z,12.75
2018-01-03T11:43:30.652Z,11.00
2018-01-03T11:44:33.200Z,5.90
2018-01-03T11:45:35.720Z,5.87
2018-01-03T11:46:38.268Z,7.90
2018-01-03T11:47:41.737Z,7.60
2018-01-03T11:48:44.429Z,12.43
2018-01-03T11:49:47.762Z,7.43
2018-01-03T11:50:50.285Z,6.12
2018-01-03T11:51:52.796Z,11.07
2018-01-03T11:52:55.312Z,10.52
2018-01-03T11:53:58.597Z,15.57
2018-01-03T11:55:01.928Z,8.48
2018-01-03T11:56:04.454Z,4.20
2018-01-03T11:57:06.994Z,4.28
2018-01-03T11:58:10.285Z,6.37
2018-01-03T11:59:13.076Z,4.90
2018-01-03T12:00:15.647Z,12.65
2018-01-03T12:01:18.169Z,13.80
2018-01-03T12:02:20.684Z,7.32
2018-01-03T12:03:23.243Z,8.20
2018-01-03T12:04:26.493Z,9.85
2018-01-03T12:05:29.044Z,9.65
2018-01-03T12:06:31.608Z,3.65
2018-01-03T12:07:34.156Z,4.55
2018-01-03T12:08:36.671Z,5.93
2018-01-03T12:09:39.955Z,8.85
2018-01-03T12:10:43.285Z,9.57
2018-01-03T12:11:45.793Z,6.07
2018-01-03T12:12:48.300Z,9.25
2018-01-03T12:13:50.817Z,7.62
2018-01-03T12:14:53.330Z,7.78
2018-01-03T12:15:55.873Z,3.42
2018-01-03T12:16:59.182Z,6.45
2018-01-03T12:18:01.702Z,5.95
2018-01-03T12:19:04.216Z,4.25
2018-01-03T12:20:06.728Z,8.10
2018-01-03T12:21:10.077Z,5.40
2018-01-03T12:22:12.588Z,8.88
2018-01-03T12:23:15.100Z,6.32
2018-01-03T12:24:17.615Z,6.40
2018-01-03T12:25:20.148Z,4.82
2018-01-03T12:26:22.698Z,8.05
2018-01-03T12:27:25.210Z,7.15
2018-01-03T12:28:27.821Z,6.15
2018-01-03T12:29:30.331Z,1.60
2018-01-03T12:30:32.876Z,6.87
2018-01-03T12:31:35.393Z,12.15
2018-01-03T12:32:38.720Z,4.72
2018-01-03T12:33:41.245Z,7.93
2018-01-03T12:34:44.525Z,6.20
2018-01-03T12:35:47.816Z,3.30
2018-01-03T12:36:51.102Z,14.35
2018-01-03T12:37:54.421Z,5.43
2018-01-03T12:38:57.094Z,8.43
2018-01-03T12:39:59.621Z,4.12
2018-01-03T12:41:02.897Z,7.62
2018-01-03T12:42:06.182Z,10.32
2018-01-03T12:43:08.761Z,5.87
2018-01-03T12:44:11.278Z,11.45
2018-01-03T12:45:13.805Z,4.82
2018-01-03T12:46:16.314Z,9.68
2018-01-03T12:47:18.817Z,9.07
2018-01-03T12:48:22.125Z,3.20
2018-01-03T12:49:24.635Z,3.72
2018-01-03T12:50:27.149Z,9.40
2018-01-03T12:51:29.668Z,3.30
2018-01-03T12:52:32.181Z,8.80
2018-01-03T12:53:34.747Z,10.02
2018-01-03T12:54:37.256Z,8.65
2018-01-03T12:55:39.789Z,6.72
2018-01-03T12:56:42.304Z,4.35
2018-01-03T12:57:44.833Z,11.18
2018-01-03T12:58:47.393Z,2.65
2018-01-03T12:59:49.904Z,9.77
2018-01-03T13:00:52.419Z,5.25
2018-01-03T13:01:54.943Z,6.50
2018-01-03T13:02:58.221Z,6.78
2018-01-03T13:04:01.537Z,5.82
2018-01-03T13:05:04.100Z,3.70
2018-01-03T13:06:06.617Z,6.35
2018-01-03T13:07:09.135Z,7.03
2018-01-03T13:08:11.652Z,4.50
2018-01-03T13:09:14.160Z,2.37
2018-01-03T13:10:16.737Z,8.23
2018-01-03T13:11:19.255Z,2.37
2018-01-03T13:12:21.783Z,6.80
2018-01-03T13:13:24.303Z,2.85
2018-01-03T13:14:27.581Z,3.30
2018-01-03T13:15:30.129Z,3.67
2018-01-03T13:16:32.646Z,2.85
2018-01-03T13:17:35.208Z,4.82
2018-01-03T13:18:37.726Z,1.20
2018-01-03T13:19:40.312Z,10.43
2018-01-03T13:20:42.868Z,3.75
2018-01-03T13:21:45.396Z,4.95
2018-01-03T13:22:47.952Z,7.05
2018-01-03T13:23:50.465Z,5.57
2018-01-03T13:24:52.978Z,2.92
2018-01-03T13:25:55.521Z,2.95
2018-01-03T13:26:58.829Z,5.53
2018-01-03T13:28:01.346Z,8.10
2018-01-03T13:29:03.866Z,2.15
2018-01-03T13:30:06.384Z,1.60
2018-01-03T13:31:08.897Z,4.45
2018-01-03T13:32:11.458Z,5.87
2018-01-03T13:33:13.978Z,4.87
2018-01-03T13:34:16.484Z,3.53
2018-01-03T13:35:19.005Z,4.03
2018-01-03T13:36:21.530Z,2.85
2018-01-03T13:37:24.081Z,1.70
2018-01-03T13:38:26.598Z,4.75
2018-01-03T13:39:29.121Z,1.98
2018-01-03T13:40:31.652Z,4.28
2018-01-03T13:41:34.941Z,3.42
2018-01-03T13:42:38.265Z,6.37
2018-01-03T13:43:40.824Z,3.22
2018-01-03T13:44:43.338Z,1.67
2018-01-03T13:45:45.856Z,5.10
2018-01-03T13:46:48.369Z,1.65
2018-01-03T13:47:50.917Z,6.95
2018-01-03T13:48:53.432Z,1.45
2018-01-03T13:49:55.948Z,2.08
2018-01-03T13:50:58.519Z,0.80
2018-01-03T13:52:01.036Z,2.45
2018-01-03T13:53:03.612Z,1.02